sensor_id;sensor_type;location;lat;lon;timestamp;temperature;humidity
22249;DHT22;67538;52.180;5.646;2023-11-22T00:02:16;4.20;99.90
22249;DHT22;67538;52.180;5.646;2023-11-22T00:04:43;4.20;99.90
22249;DHT22;67538;52.180;5.646;2023-11-22T00:07:10;4.30;99.90
22249;DHT22;67538;52.180;5.646;2023-11-22T00:09:38;4.20;99.90
22249;DHT22;67538;52.180;5.646;2023-11-22T00:12:07;4.20;99.90
22249;DHT22;67538;52.180;5.646;2023-11-22T00:14:35;4.20;99.90
22249;DHT22;67538;52.180;5.646;2023-11-22T00:17:02;4.10;99.90
22249;DHT22;67538;52.180;5.646;2023-11-22T00:19:29;4.20;99.90
22249;DHT22;67538;52.180;5.646;2023-11-22T00:21:58;4.10;99.90
22249;DHT22;67538;52.180;5.646;2023-11-22T00:24:25;4.10;99.90
22249;DHT22;67538;52.180;5.646;2023-11-22T00:26:53;4.10;99.90
22249;DHT22;67538;52.180;5.646;2023-11-22T00:29:20;4.10;99.90
22249;DHT22;67538;52.180;5.646;2023-11-22T00:31:47;4.00;99.90
22249;DHT22;67538;52.180;5.646;2023-11-22T00:34:14;3.90;99.90
22249;DHT22;67538;52.180;5.646;2023-11-22T00:36:41;3.90;99.90
22249;DHT22;67538;52.180;5.646;2023-11-22T00:39:08;3.90;99.90
22249;DHT22;67538;52.180;5.646;2023-11-22T00:41:38;3.80;99.90
22249;DHT22;67538;52.180;5.646;2023-11-22T00:44:07;3.80;99.90
22249;DHT22;67538;52.180;5.646;2023-11-22T00:46:34;3.70;99.90
22249;DHT22;67538;52.180;5.646;2023-11-22T00:49:01;3.70;99.90
22249;DHT22;67538;52.180;5.646;2023-11-22T00:51:28;3.60;99.90
22249;DHT22;67538;52.180;5.646;2023-11-22T00:53:56;3.60;99.90
22249;DHT22;67538;52.180;5.646;2023-11-22T00:56:23;3.60;99.90
22249;DHT22;67538;52.180;5.646;2023-11-22T00:58:50;3.60;99.90
22249;DHT22;67538;52.180;5.646;2023-11-22T01:01:20;3.60;99.90
22249;DHT22;67538;52.180;5.646;2023-11-22T01:03:47;3.50;99.90
22249;DHT22;67538;52.180;5.646;2023-11-22T01:06:14;3.50;99.90
22249;DHT22;67538;52.180;5.646;2023-11-22T01:08:41;3.40;99.90
22249;DHT22;67538;52.180;5.646;2023-11-22T01:11:08;3.40;99.90
22249;DHT22;67538;52.180;5.646;2023-11-22T01:13:35;3.40;99.90
22249;DHT22;67538;52.180;5.646;2023-11-22T01:16:06;3.40;99.90
22249;DHT22;67538;52.180;5.646;2023-11-22T01:18:35;3.40;99.90
22249;DHT22;67538;52.180;5.646;2023-11-22T01:21:02;3.30;99.90
22249;DHT22;67538;52.180;5.646;2023-11-22T01:23:30;3.30;99.90
22249;DHT22;67538;52.180;5.646;2023-11-22T01:25:57;3.20;99.90
22249;DHT22;67538;52.180;5.646;2023-11-22T01:28:25;3.20;99.90
22249;DHT22;67538;52.180;5.646;2023-11-22T01:30:53;3.10;99.90
22249;DHT22;67538;52.180;5.646;2023-11-22T01:33:20;3.10;99.90
22249;DHT22;67538;52.180;5.646;2023-11-22T01:35:48;3.10;99.90
22249;DHT22;67538;52.180;5.646;2023-11-22T01:38:16;3.10;99.90
22249;DHT22;67538;52.180;5.646;2023-11-22T01:40:44;3.10;99.90
22249;DHT22;67538;52.180;5.646;2023-11-22T01:43:13;3.00;99.90
22249;DHT22;67538;52.180;5.646;2023-11-22T01:45:40;3.00;99.90
22249;DHT22;67538;52.180;5.646;2023-11-22T01:48:08;3.00;99.90
22249;DHT22;67538;52.180;5.646;2023-11-22T01:50:36;2.90;99.90
22249;DHT22;67538;52.180;5.646;2023-11-22T01:53:07;2.90;99.90
22249;DHT22;67538;52.180;5.646;2023-11-22T01:55:35;2.90;99.90
22249;DHT22;67538;52.180;5.646;2023-11-22T01:58:02;2.90;99.90
22249;DHT22;67538;52.180;5.646;2023-11-22T02:00:35;2.90;99.90
22249;DHT22;67538;52.180;5.646;2023-11-22T02:03:03;2.90;99.90
22249;DHT22;67538;52.180;5.646;2023-11-22T02:05:30;2.90;99.90
22249;DHT22;67538;52.180;5.646;2023-11-22T02:07:57;2.90;99.90
22249;DHT22;67538;52.180;5.646;2023-11-22T02:10:26;2.90;99.90
22249;DHT22;67538;52.180;5.646;2023-11-22T02:12:53;2.80;99.90
22249;DHT22;67538;52.180;5.646;2023-11-22T02:15:20;2.80;99.90
22249;DHT22;67538;52.180;5.646;2023-11-22T02:17:47;2.80;99.90
22249;DHT22;67538;52.180;5.646;2023-11-22T02:20:14;2.80;99.90
22249;DHT22;67538;52.180;5.646;2023-11-22T02:22:44;2.80;99.90
22249;DHT22;67538;52.180;5.646;2023-11-22T02:25:13;2.70;99.90
22249;DHT22;67538;52.180;5.646;2023-11-22T02:27:41;2.70;99.90
22249;DHT22;67538;52.180;5.646;2023-11-22T02:30:09;2.70;99.90
22249;DHT22;67538;52.180;5.646;2023-11-22T02:32:37;2.60;99.90
22249;DHT22;67538;52.180;5.646;2023-11-22T02:35:05;2.60;99.90
22249;DHT22;67538;52.180;5.646;2023-11-22T02:37:33;2.60;99.90
22249;DHT22;67538;52.180;5.646;2023-11-22T02:40:05;2.60;99.90
22249;DHT22;67538;52.180;5.646;2023-11-22T02:42:35;2.60;99.90
22249;DHT22;67538;52.180;5.646;2023-11-22T02:45:02;2.60;99.90
22249;DHT22;67538;52.180;5.646;2023-11-22T02:47:28;2.50;99.90
22249;DHT22;67538;52.180;5.646;2023-11-22T02:49:56;2.50;99.90
22249;DHT22;67538;52.180;5.646;2023-11-22T02:52:23;2.50;99.90
22249;DHT22;67538;52.180;5.646;2023-11-22T02:54:51;2.50;99.90
22249;DHT22;67538;52.180;5.646;2023-11-22T02:57:18;2.40;99.90
22249;DHT22;67538;52.180;5.646;2023-11-22T02:59:47;2.40;99.90
22249;DHT22;67538;52.180;5.646;2023-11-22T03:02:14;2.50;99.90
22249;DHT22;67538;52.180;5.646;2023-11-22T03:04:42;2.50;99.90
22249;DHT22;67538;52.180;5.646;2023-11-22T03:07:09;2.40;99.90
22249;DHT22;67538;52.180;5.646;2023-11-22T03:09:36;2.40;99.90
22249;DHT22;67538;52.180;5.646;2023-11-22T03:12:04;2.40;99.90
22249;DHT22;67538;52.180;5.646;2023-11-22T03:14:32;2.30;99.90
22249;DHT22;67538;52.180;5.646;2023-11-22T03:17:00;2.30;99.90
22249;DHT22;67538;52.180;5.646;2023-11-22T03:19:27;2.30;99.90
22249;DHT22;67538;52.180;5.646;2023-11-22T03:21:54;2.30;99.90
22249;DHT22;67538;52.180;5.646;2023-11-22T03:24:21;2.30;99.90
22249;DHT22;67538;52.180;5.646;2023-11-22T03:26:48;2.40;99.90
22249;DHT22;67538;52.180;5.646;2023-11-22T03:29:15;2.30;99.90
22249;DHT22;67538;52.180;5.646;2023-11-22T03:31:44;2.30;99.90
22249;DHT22;67538;52.180;5.646;2023-11-22T03:34:14;2.30;99.90
22249;DHT22;67538;52.180;5.646;2023-11-22T03:36:41;2.30;99.90
22249;DHT22;67538;52.180;5.646;2023-11-22T03:39:08;2.20;99.90
22249;DHT22;67538;52.180;5.646;2023-11-22T03:41:36;2.30;99.90
22249;DHT22;67538;52.180;5.646;2023-11-22T03:44:04;2.20;99.90
22249;DHT22;67538;52.180;5.646;2023-11-22T03:46:34;2.20;99.90
22249;DHT22;67538;52.180;5.646;2023-11-22T03:49:01;2.20;99.90
22249;DHT22;67538;52.180;5.646;2023-11-22T03:51:30;2.20;99.90
22249;DHT22;67538;52.180;5.646;2023-11-22T03:53:57;2.20;99.90
22249;DHT22;67538;52.180;5.646;2023-11-22T03:56:24;2.10;99.90
22249;DHT22;67538;52.180;5.646;2023-11-22T03:58:51;2.10;99.90
22249;DHT22;67538;52.180;5.646;2023-11-22T04:01:18;2.10;99.90
22249;DHT22;67538;52.180;5.646;2023-11-22T04:03:46;2.20;99.90
22249;DHT22;67538;52.180;5.646;2023-11-22T04:06:14;2.10;99.90
22249;DHT22;67538;52.180;5.646;2023-11-22T04:08:44;2.10;99.90
22249;DHT22;67538;52.180;5.646;2023-11-22T04:11:11;2.10;99.90
22249;DHT22;67538;52.180;5.646;2023-11-22T04:13:38;2.10;99.90
22249;DHT22;67538;52.180;5.646;2023-11-22T04:16:07;2.10;99.90
22249;DHT22;67538;52.180;5.646;2023-11-22T04:18:34;2.00;99.90
22249;DHT22;67538;52.180;5.646;2023-11-22T04:21:02;2.00;99.90
22249;DHT22;67538;52.180;5.646;2023-11-22T04:23:30;2.00;99.90
22249;DHT22;67538;52.180;5.646;2023-11-22T04:25:59;1.90;99.90
22249;DHT22;67538;52.180;5.646;2023-11-22T04:28:27;1.90;99.90
22249;DHT22;67538;52.180;5.646;2023-11-22T04:30:55;1.80;99.90
22249;DHT22;67538;52.180;5.646;2023-11-22T04:33:22;1.80;99.90
22249;DHT22;67538;52.180;5.646;2023-11-22T04:35:50;1.80;99.90
22249;DHT22;67538;52.180;5.646;2023-11-22T04:38:17;1.80;99.90
22249;DHT22;67538;52.180;5.646;2023-11-22T04:40:44;1.80;99.90
22249;DHT22;67538;52.180;5.646;2023-11-22T04:43:12;1.80;99.90
22249;DHT22;67538;52.180;5.646;2023-11-22T04:45:40;1.70;99.90
22249;DHT22;67538;52.180;5.646;2023-11-22T04:48:07;1.80;99.90
22249;DHT22;67538;52.180;5.646;2023-11-22T04:50:34;1.80;99.90
22249;DHT22;67538;52.180;5.646;2023-11-22T04:53:01;1.70;99.90
22249;DHT22;67538;52.180;5.646;2023-11-22T04:55:28;1.70;99.90
22249;DHT22;67538;52.180;5.646;2023-11-22T04:57:55;1.70;99.90
22249;DHT22;67538;52.180;5.646;2023-11-22T05:00:24;1.70;99.90
22249;DHT22;67538;52.180;5.646;2023-11-22T05:02:51;1.60;99.90
22249;DHT22;67538;52.180;5.646;2023-11-22T05:05:18;1.60;99.90
22249;DHT22;67538;52.180;5.646;2023-11-22T05:07:45;1.60;99.90
22249;DHT22;67538;52.180;5.646;2023-11-22T05:10:13;1.50;99.90
22249;DHT22;67538;52.180;5.646;2023-11-22T05:12:40;1.60;99.90
22249;DHT22;67538;52.180;5.646;2023-11-22T05:15:07;1.50;99.90
22249;DHT22;67538;52.180;5.646;2023-11-22T05:17:36;1.50;99.90
22249;DHT22;67538;52.180;5.646;2023-11-22T05:20:04;1.60;99.90
22249;DHT22;67538;52.180;5.646;2023-11-22T05:22:34;1.60;99.90
22249;DHT22;67538;52.180;5.646;2023-11-22T05:25:01;1.60;99.90
22249;DHT22;67538;52.180;5.646;2023-11-22T05:27:28;1.70;99.90
22249;DHT22;67538;52.180;5.646;2023-11-22T05:29:57;1.70;99.90
22249;DHT22;67538;52.180;5.646;2023-11-22T05:32:24;1.70;99.90
22249;DHT22;67538;52.180;5.646;2023-11-22T05:34:53;1.80;99.90
22249;DHT22;67538;52.180;5.646;2023-11-22T05:37:20;1.80;99.90
22249;DHT22;67538;52.180;5.646;2023-11-22T05:39:47;1.70;99.90
22249;DHT22;67538;52.180;5.646;2023-11-22T05:42:14;1.80;99.90
22249;DHT22;67538;52.180;5.646;2023-11-22T05:44:41;1.80;99.90
22249;DHT22;67538;52.180;5.646;2023-11-22T05:47:08;1.80;99.90
22249;DHT22;67538;52.180;5.646;2023-11-22T05:49:35;1.80;99.90
22249;DHT22;67538;52.180;5.646;2023-11-22T05:52:04;1.90;99.90
22249;DHT22;67538;52.180;5.646;2023-11-22T05:54:31;1.90;99.90
22249;DHT22;67538;52.180;5.646;2023-11-22T05:56:58;1.90;99.90
22249;DHT22;67538;52.180;5.646;2023-11-22T05:59:26;1.90;99.90
22249;DHT22;67538;52.180;5.646;2023-11-22T06:01:53;1.90;99.90
22249;DHT22;67538;52.180;5.646;2023-11-22T06:04:20;1.90;99.90
22249;DHT22;67538;52.180;5.646;2023-11-22T06:06:46;1.90;99.90
22249;DHT22;67538;52.180;5.646;2023-11-22T06:09:15;1.90;99.90
22249;DHT22;67538;52.180;5.646;2023-11-22T06:11:42;1.90;99.90
22249;DHT22;67538;52.180;5.646;2023-11-22T06:14:09;1.90;99.90
22249;DHT22;67538;52.180;5.646;2023-11-22T06:16:36;1.90;99.90
22249;DHT22;67538;52.180;5.646;2023-11-22T06:19:03;1.90;99.90
22249;DHT22;67538;52.180;5.646;2023-11-22T06:21:30;1.90;99.90
22249;DHT22;67538;52.180;5.646;2023-11-22T06:23:57;1.90;99.90
22249;DHT22;67538;52.180;5.646;2023-11-22T06:26:26;2.00;99.90
22249;DHT22;67538;52.180;5.646;2023-11-22T06:28:53;1.90;99.90
22249;DHT22;67538;52.180;5.646;2023-11-22T06:31:21;1.80;99.90
22249;DHT22;67538;52.180;5.646;2023-11-22T06:33:48;1.90;99.90
22249;DHT22;67538;52.180;5.646;2023-11-22T06:36:16;1.80;99.90
22249;DHT22;67538;52.180;5.646;2023-11-22T06:38:44;1.80;99.90
22249;DHT22;67538;52.180;5.646;2023-11-22T06:41:12;1.80;99.90
22249;DHT22;67538;52.180;5.646;2023-11-22T06:43:40;1.70;99.90
22249;DHT22;67538;52.180;5.646;2023-11-22T06:46:08;1.60;99.90
22249;DHT22;67538;52.180;5.646;2023-11-22T06:48:35;1.60;99.90
22249;DHT22;67538;52.180;5.646;2023-11-22T06:51:02;1.50;99.90
22249;DHT22;67538;52.180;5.646;2023-11-22T06:53:29;1.50;99.90
22249;DHT22;67538;52.180;5.646;2023-11-22T06:55:57;1.50;99.90
22249;DHT22;67538;52.180;5.646;2023-11-22T06:58:24;1.60;99.90
22249;DHT22;67538;52.180;5.646;2023-11-22T07:00:52;1.60;99.90
22249;DHT22;67538;52.180;5.646;2023-11-22T07:03:20;1.70;99.90
22249;DHT22;67538;52.180;5.646;2023-11-22T07:05:48;1.80;99.90
22249;DHT22;67538;52.180;5.646;2023-11-22T07:08:15;1.80;99.90
22249;DHT22;67538;52.180;5.646;2023-11-22T07:10:42;1.80;99.90
22249;DHT22;67538;52.180;5.646;2023-11-22T07:13:10;1.90;99.90
22249;DHT22;67538;52.180;5.646;2023-11-22T07:15:38;2.00;99.90
22249;DHT22;67538;52.180;5.646;2023-11-22T07:18:07;2.00;99.90
22249;DHT22;67538;52.180;5.646;2023-11-22T07:20:35;1.90;99.90
22249;DHT22;67538;52.180;5.646;2023-11-22T07:23:02;1.90;99.90
22249;DHT22;67538;52.180;5.646;2023-11-22T07:25:30;2.00;99.90
22249;DHT22;67538;52.180;5.646;2023-11-22T07:27:57;2.00;99.90
22249;DHT22;67538;52.180;5.646;2023-11-22T07:30:25;2.00;99.90
22249;DHT22;67538;52.180;5.646;2023-11-22T07:32:55;2.00;99.90
22249;DHT22;67538;52.180;5.646;2023-11-22T07:35:26;2.00;99.90
22249;DHT22;67538;52.180;5.646;2023-11-22T07:37:53;2.00;99.90
22249;DHT22;67538;52.180;5.646;2023-11-22T07:40:20;2.00;99.90
22249;DHT22;67538;52.180;5.646;2023-11-22T07:42:48;2.10;99.90
22249;DHT22;67538;52.180;5.646;2023-11-22T07:45:16;2.10;99.90
22249;DHT22;67538;52.180;5.646;2023-11-22T07:47:43;2.10;99.90
22249;DHT22;67538;52.180;5.646;2023-11-22T07:50:10;2.20;99.90
22249;DHT22;67538;52.180;5.646;2023-11-22T07:52:39;2.20;99.90
22249;DHT22;67538;52.180;5.646;2023-11-22T07:55:08;2.30;99.90
22249;DHT22;67538;52.180;5.646;2023-11-22T07:57:35;2.20;99.90
22249;DHT22;67538;52.180;5.646;2023-11-22T08:00:03;2.30;99.90
22249;DHT22;67538;52.180;5.646;2023-11-22T08:02:33;2.30;99.90
22249;DHT22;67538;52.180;5.646;2023-11-22T08:05:00;2.40;99.90
22249;DHT22;67538;52.180;5.646;2023-11-22T08:07:29;2.50;99.90
22249;DHT22;67538;52.180;5.646;2023-11-22T08:09:59;2.60;99.90
22249;DHT22;67538;52.180;5.646;2023-11-22T08:12:35;2.70;99.90
22249;DHT22;67538;52.180;5.646;2023-11-22T08:15:03;2.70;99.90
22249;DHT22;67538;52.180;5.646;2023-11-22T08:17:31;2.70;99.90
22249;DHT22;67538;52.180;5.646;2023-11-22T08:19:59;2.70;99.90
22249;DHT22;67538;52.180;5.646;2023-11-22T08:22:28;2.70;99.90
22249;DHT22;67538;52.180;5.646;2023-11-22T08:24:55;2.70;99.90
22249;DHT22;67538;52.180;5.646;2023-11-22T08:27:24;2.70;99.90
22249;DHT22;67538;52.180;5.646;2023-11-22T08:29:51;2.80;99.90
22249;DHT22;67538;52.180;5.646;2023-11-22T08:32:18;2.90;99.90
22249;DHT22;67538;52.180;5.646;2023-11-22T08:34:49;2.90;99.90
22249;DHT22;67538;52.180;5.646;2023-11-22T08:37:16;2.90;99.90
22249;DHT22;67538;52.180;5.646;2023-11-22T08:39:43;2.90;99.90
22249;DHT22;67538;52.180;5.646;2023-11-22T08:42:10;2.90;99.90
22249;DHT22;67538;52.180;5.646;2023-11-22T08:44:38;2.90;99.90
22249;DHT22;67538;52.180;5.646;2023-11-22T08:47:05;3.00;99.90
22249;DHT22;67538;52.180;5.646;2023-11-22T08:49:33;3.10;99.90
22249;DHT22;67538;52.180;5.646;2023-11-22T08:52:00;3.20;99.90
22249;DHT22;67538;52.180;5.646;2023-11-22T08:54:28;3.20;99.90
22249;DHT22;67538;52.180;5.646;2023-11-22T08:56:55;3.20;99.90
22249;DHT22;67538;52.180;5.646;2023-11-22T08:59:23;3.30;99.90
22249;DHT22;67538;52.180;5.646;2023-11-22T09:01:51;3.40;99.90
22249;DHT22;67538;52.180;5.646;2023-11-22T09:04:18;3.40;99.90
22249;DHT22;67538;52.180;5.646;2023-11-22T09:06:45;3.50;99.90
22249;DHT22;67538;52.180;5.646;2023-11-22T09:09:13;3.50;99.90
22249;DHT22;67538;52.180;5.646;2023-11-22T09:11:42;3.60;99.90
22249;DHT22;67538;52.180;5.646;2023-11-22T09:14:09;3.70;99.90
22249;DHT22;67538;52.180;5.646;2023-11-22T09:16:36;3.70;99.90
22249;DHT22;67538;52.180;5.646;2023-11-22T09:19:05;3.70;99.90
22249;DHT22;67538;52.180;5.646;2023-11-22T09:21:33;3.80;99.90
22249;DHT22;67538;52.180;5.646;2023-11-22T09:24:00;3.90;99.90
22249;DHT22;67538;52.180;5.646;2023-11-22T09:26:28;3.80;99.90
22249;DHT22;67538;52.180;5.646;2023-11-22T09:28:55;3.90;99.90
22249;DHT22;67538;52.180;5.646;2023-11-22T09:31:23;4.10;99.90
22249;DHT22;67538;52.180;5.646;2023-11-22T09:33:49;4.10;99.90
22249;DHT22;67538;52.180;5.646;2023-11-22T09:36:18;4.10;99.90
22249;DHT22;67538;52.180;5.646;2023-11-22T09:38:45;4.10;99.90
22249;DHT22;67538;52.180;5.646;2023-11-22T09:41:13;4.10;99.90
22249;DHT22;67538;52.180;5.646;2023-11-22T09:43:42;4.00;99.90
22249;DHT22;67538;52.180;5.646;2023-11-22T09:46:09;4.10;99.90
22249;DHT22;67538;52.180;5.646;2023-11-22T09:48:39;4.10;99.90
22249;DHT22;67538;52.180;5.646;2023-11-22T09:51:13;4.10;99.90
22249;DHT22;67538;52.180;5.646;2023-11-22T09:53:53;4.10;99.90
22249;DHT22;67538;52.180;5.646;2023-11-22T09:56:23;4.10;99.90
22249;DHT22;67538;52.180;5.646;2023-11-22T09:58:52;4.20;99.90
22249;DHT22;67538;52.180;5.646;2023-11-22T10:01:22;4.20;99.90
22249;DHT22;67538;52.180;5.646;2023-11-22T10:03:49;4.20;99.90
22249;DHT22;67538;52.180;5.646;2023-11-22T10:06:17;4.30;99.90
22249;DHT22;67538;52.180;5.646;2023-11-22T10:08:45;4.30;99.90
22249;DHT22;67538;52.180;5.646;2023-11-22T10:11:15;4.30;99.90
22249;DHT22;67538;52.180;5.646;2023-11-22T10:13:43;4.30;99.90
22249;DHT22;67538;52.180;5.646;2023-11-22T10:16:13;4.30;99.90
22249;DHT22;67538;52.180;5.646;2023-11-22T10:18:42;4.40;99.90
22249;DHT22;67538;52.180;5.646;2023-11-22T10:21:23;4.40;99.90
22249;DHT22;67538;52.180;5.646;2023-11-22T10:23:53;4.40;99.90
22249;DHT22;67538;52.180;5.646;2023-11-22T10:26:22;4.50;99.90
22249;DHT22;67538;52.180;5.646;2023-11-22T10:28:51;4.50;99.90
22249;DHT22;67538;52.180;5.646;2023-11-22T10:31:18;4.60;99.90
22249;DHT22;67538;52.180;5.646;2023-11-22T10:33:47;4.70;99.90
22249;DHT22;67538;52.180;5.646;2023-11-22T10:36:14;4.80;99.90
22249;DHT22;67538;52.180;5.646;2023-11-22T10:38:45;4.90;99.90
22249;DHT22;67538;52.180;5.646;2023-11-22T10:41:13;5.00;99.90
22249;DHT22;67538;52.180;5.646;2023-11-22T10:43:41;5.20;99.90
22249;DHT22;67538;52.180;5.646;2023-11-22T10:46:08;5.30;99.90
22249;DHT22;67538;52.180;5.646;2023-11-22T10:48:36;5.50;99.90
22249;DHT22;67538;52.180;5.646;2023-11-22T10:51:04;5.60;99.90
22249;DHT22;67538;52.180;5.646;2023-11-22T10:53:33;5.60;99.90
22249;DHT22;67538;52.180;5.646;2023-11-22T10:56:05;5.60;99.90
22249;DHT22;67538;52.180;5.646;2023-11-22T10:58:41;5.50;99.90
22249;DHT22;67538;52.180;5.646;2023-11-22T11:01:10;5.50;99.90
22249;DHT22;67538;52.180;5.646;2023-11-22T11:03:40;5.50;99.90
22249;DHT22;67538;52.180;5.646;2023-11-22T11:06:10;5.60;99.90
22249;DHT22;67538;52.180;5.646;2023-11-22T11:08:41;5.80;99.90
22249;DHT22;67538;52.180;5.646;2023-11-22T11:11:11;5.90;99.90
22249;DHT22;67538;52.180;5.646;2023-11-22T11:13:40;5.90;99.90
22249;DHT22;67538;52.180;5.646;2023-11-22T11:16:07;6.00;99.90
22249;DHT22;67538;52.180;5.646;2023-11-22T11:18:35;6.10;99.90
22249;DHT22;67538;52.180;5.646;2023-11-22T11:21:08;6.20;99.90
22249;DHT22;67538;52.180;5.646;2023-11-22T11:23:39;6.40;99.90
22249;DHT22;67538;52.180;5.646;2023-11-22T11:26:15;6.50;99.90
22249;DHT22;67538;52.180;5.646;2023-11-22T11:28:45;6.40;99.90
22249;DHT22;67538;52.180;5.646;2023-11-22T11:31:13;6.30;99.90
22249;DHT22;67538;52.180;5.646;2023-11-22T11:33:55;6.30;99.90
22249;DHT22;67538;52.180;5.646;2023-11-22T11:36:24;6.20;99.90
22249;DHT22;67538;52.180;5.646;2023-11-22T11:38:52;6.10;99.90
22249;DHT22;67538;52.180;5.646;2023-11-22T11:41:25;5.90;99.90
22249;DHT22;67538;52.180;5.646;2023-11-22T11:43:56;5.90;99.90
22249;DHT22;67538;52.180;5.646;2023-11-22T11:46:23;5.80;99.90
22249;DHT22;67538;52.180;5.646;2023-11-22T11:48:51;5.80;99.90
22249;DHT22;67538;52.180;5.646;2023-11-22T11:51:20;5.80;99.90
22249;DHT22;67538;52.180;5.646;2023-11-22T11:53:48;5.80;99.90
22249;DHT22;67538;52.180;5.646;2023-11-22T11:56:16;5.80;99.90
22249;DHT22;67538;52.180;5.646;2023-11-22T11:58:44;5.80;99.90
22249;DHT22;67538;52.180;5.646;2023-11-22T12:01:14;5.70;99.90
22249;DHT22;67538;52.180;5.646;2023-11-22T12:03:42;5.90;99.90
22249;DHT22;67538;52.180;5.646;2023-11-22T12:06:09;6.00;99.90
22249;DHT22;67538;52.180;5.646;2023-11-22T12:08:36;6.30;99.90
22249;DHT22;67538;52.180;5.646;2023-11-22T12:11:04;6.40;99.90
22249;DHT22;67538;52.180;5.646;2023-11-22T12:13:34;6.50;99.90
22249;DHT22;67538;52.180;5.646;2023-11-22T12:16:05;6.50;99.90
22249;DHT22;67538;52.180;5.646;2023-11-22T12:18:41;6.40;99.90
22249;DHT22;67538;52.180;5.646;2023-11-22T12:21:09;6.50;99.90
22249;DHT22;67538;52.180;5.646;2023-11-22T12:23:39;6.50;99.90
22249;DHT22;67538;52.180;5.646;2023-11-22T12:26:10;6.60;99.90
22249;DHT22;67538;52.180;5.646;2023-11-22T12:28:39;6.70;99.90
22249;DHT22;67538;52.180;5.646;2023-11-22T12:31:07;6.80;99.90
22249;DHT22;67538;52.180;5.646;2023-11-22T12:33:35;6.90;99.90
22249;DHT22;67538;52.180;5.646;2023-11-22T12:36:05;6.70;99.90
22249;DHT22;67538;52.180;5.646;2023-11-22T12:38:34;6.70;99.90
22249;DHT22;67538;52.180;5.646;2023-11-22T12:41:00;6.70;99.90
22249;DHT22;67538;52.180;5.646;2023-11-22T12:43:28;6.60;99.90
22249;DHT22;67538;52.180;5.646;2023-11-22T12:45:59;6.50;99.90
22249;DHT22;67538;52.180;5.646;2023-11-22T12:48:26;6.50;99.90
22249;DHT22;67538;52.180;5.646;2023-11-22T12:50:56;6.40;99.90
22249;DHT22;67538;52.180;5.646;2023-11-22T12:53:24;6.40;99.90
22249;DHT22;67538;52.180;5.646;2023-11-22T12:55:54;6.20;99.90
22249;DHT22;67538;52.180;5.646;2023-11-22T12:58:22;6.20;99.90
22249;DHT22;67538;52.180;5.646;2023-11-22T13:00:51;6.20;99.90
22249;DHT22;67538;52.180;5.646;2023-11-22T13:03:24;6.10;99.90
22249;DHT22;67538;52.180;5.646;2023-11-22T13:05:51;6.10;99.90
22249;DHT22;67538;52.180;5.646;2023-11-22T13:08:20;6.10;99.90
22249;DHT22;67538;52.180;5.646;2023-11-22T13:10:50;6.00;99.90
22249;DHT22;67538;52.180;5.646;2023-11-22T13:13:19;6.00;99.90
22249;DHT22;67538;52.180;5.646;2023-11-22T13:15:46;6.00;99.90
22249;DHT22;67538;52.180;5.646;2023-11-22T13:18:14;6.00;99.90
22249;DHT22;67538;52.180;5.646;2023-11-22T13:20:42;6.10;99.90
22249;DHT22;67538;52.180;5.646;2023-11-22T13:23:10;6.10;99.90
22249;DHT22;67538;52.180;5.646;2023-11-22T13:25:37;6.10;99.90
22249;DHT22;67538;52.180;5.646;2023-11-22T13:28:06;6.00;99.90
22249;DHT22;67538;52.180;5.646;2023-11-22T13:30:34;6.00;99.90
22249;DHT22;67538;52.180;5.646;2023-11-22T13:33:01;6.00;99.90
22249;DHT22;67538;52.180;5.646;2023-11-22T13:35:29;5.90;99.90
22249;DHT22;67538;52.180;5.646;2023-11-22T13:37:57;6.00;99.90
22249;DHT22;67538;52.180;5.646;2023-11-22T13:40:25;5.90;99.90
22249;DHT22;67538;52.180;5.646;2023-11-22T13:42:56;5.90;99.90
22249;DHT22;67538;52.180;5.646;2023-11-22T13:45:25;5.90;99.90
22249;DHT22;67538;52.180;5.646;2023-11-22T13:47:53;5.90;99.90
22249;DHT22;67538;52.180;5.646;2023-11-22T13:50:22;5.80;99.90
22249;DHT22;67538;52.180;5.646;2023-11-22T13:52:53;5.90;99.90
22249;DHT22;67538;52.180;5.646;2023-11-22T13:55:21;5.80;99.90
22249;DHT22;67538;52.180;5.646;2023-11-22T13:57:49;5.80;99.90
22249;DHT22;67538;52.180;5.646;2023-11-22T14:00:18;5.80;99.90
22249;DHT22;67538;52.180;5.646;2023-11-22T14:02:51;5.80;99.90
22249;DHT22;67538;52.180;5.646;2023-11-22T14:05:18;5.80;99.90
22249;DHT22;67538;52.180;5.646;2023-11-22T14:07:45;5.80;99.90
22249;DHT22;67538;52.180;5.646;2023-11-22T14:10:13;5.70;99.90
22249;DHT22;67538;52.180;5.646;2023-11-22T14:12:42;5.70;99.90
22249;DHT22;67538;52.180;5.646;2023-11-22T14:15:10;5.70;99.90
22249;DHT22;67538;52.180;5.646;2023-11-22T14:17:38;5.70;99.90
22249;DHT22;67538;52.180;5.646;2023-11-22T14:20:09;5.60;99.90
22249;DHT22;67538;52.180;5.646;2023-11-22T14:22:37;5.70;99.90
22249;DHT22;67538;52.180;5.646;2023-11-22T14:25:05;5.60;99.90
22249;DHT22;67538;52.180;5.646;2023-11-22T14:27:36;5.50;99.90
22249;DHT22;67538;52.180;5.646;2023-11-22T14:30:04;5.60;99.90
22249;DHT22;67538;52.180;5.646;2023-11-22T14:32:33;5.60;99.90
22249;DHT22;67538;52.180;5.646;2023-11-22T14:35:01;5.50;99.90
22249;DHT22;67538;52.180;5.646;2023-11-22T14:37:30;5.50;99.90
22249;DHT22;67538;52.180;5.646;2023-11-22T14:39:57;5.50;99.90
22249;DHT22;67538;52.180;5.646;2023-11-22T14:42:24;5.50;99.90
22249;DHT22;67538;52.180;5.646;2023-11-22T14:44:51;5.50;99.90
22249;DHT22;67538;52.180;5.646;2023-11-22T14:47:20;5.50;99.90
22249;DHT22;67538;52.180;5.646;2023-11-22T14:49:50;5.50;99.90
22249;DHT22;67538;52.180;5.646;2023-11-22T14:52:17;5.50;99.90
22249;DHT22;67538;52.180;5.646;2023-11-22T14:54:46;5.50;99.90
22249;DHT22;67538;52.180;5.646;2023-11-22T14:57:13;5.50;99.90
22249;DHT22;67538;52.180;5.646;2023-11-22T14:59:42;5.50;99.90
22249;DHT22;67538;52.180;5.646;2023-11-22T15:02:10;5.50;99.90
22249;DHT22;67538;52.180;5.646;2023-11-22T15:04:37;5.50;99.90
22249;DHT22;67538;52.180;5.646;2023-11-22T15:07:04;5.50;99.90
22249;DHT22;67538;52.180;5.646;2023-11-22T15:09:32;5.40;99.90
22249;DHT22;67538;52.180;5.646;2023-11-22T15:12:01;5.40;99.90
22249;DHT22;67538;52.180;5.646;2023-11-22T15:14:29;5.40;99.90
22249;DHT22;67538;52.180;5.646;2023-11-22T15:16:56;5.40;99.90
22249;DHT22;67538;52.180;5.646;2023-11-22T15:19:26;5.40;99.90
22249;DHT22;67538;52.180;5.646;2023-11-22T15:21:54;5.40;99.90
22249;DHT22;67538;52.180;5.646;2023-11-22T15:24:21;5.40;99.90
22249;DHT22;67538;52.180;5.646;2023-11-22T15:26:48;5.30;99.90
22249;DHT22;67538;52.180;5.646;2023-11-22T15:29:16;5.40;99.90
22249;DHT22;67538;52.180;5.646;2023-11-22T15:31:43;5.30;99.90
22249;DHT22;67538;52.180;5.646;2023-11-22T15:34:10;5.30;99.90
22249;DHT22;67538;52.180;5.646;2023-11-22T15:36:38;5.20;99.90
22249;DHT22;67538;52.180;5.646;2023-11-22T15:39:05;5.20;99.90
22249;DHT22;67538;52.180;5.646;2023-11-22T15:41:37;5.20;99.90
22249;DHT22;67538;52.180;5.646;2023-11-22T15:44:05;5.20;99.90
22249;DHT22;67538;52.180;5.646;2023-11-22T15:46:33;5.10;99.90
22249;DHT22;67538;52.180;5.646;2023-11-22T15:49:01;5.20;99.90
22249;DHT22;67538;52.180;5.646;2023-11-22T15:51:29;5.20;99.90